sensor_id;sensor_type;location;lat;lon;timestamp;temperature;humidity
14349;DHT22;7258;50.376;8.742;2023-04-16T00:06:25;8.70;99.90
14349;DHT22;7258;50.376;8.742;2023-04-16T00:09:09;8.70;99.90
14349;DHT22;7258;50.376;8.742;2023-04-16T00:12:05;8.70;99.90
14349;DHT22;7258;50.376;8.742;2023-04-16T00:14:17;8.70;99.90
14349;DHT22;7258;50.376;8.742;2023-04-16T00:20:15;8.70;99.90
14349;DHT22;7258;50.376;8.742;2023-04-16T00:22:32;8.70;99.90
14349;DHT22;7258;50.376;8.742;2023-04-16T00:25:56;8.70;99.90
14349;DHT22;7258;50.376;8.742;2023-04-16T00:30:09;8.70;99.90
14349;DHT22;7258;50.376;8.742;2023-04-16T00:32:19;8.70;99.90
14349;DHT22;7258;50.376;8.742;2023-04-16T00:35:08;8.70;99.90
14349;DHT22;7258;50.376;8.742;2023-04-16T00:37:34;8.70;99.90
14349;DHT22;7258;50.376;8.742;2023-04-16T00:40:11;8.70;99.90
14349;DHT22;7258;50.376;8.742;2023-04-16T00:42:53;8.70;99.90
14349;DHT22;7258;50.376;8.742;2023-04-16T00:48:06;8.70;99.90
14349;DHT22;7258;50.376;8.742;2023-04-16T00:50:17;8.80;99.90
14349;DHT22;7258;50.376;8.742;2023-04-16T00:53:16;8.80;99.90
14349;DHT22;7258;50.376;8.742;2023-04-16T00:55:20;8.80;99.90
14349;DHT22;7258;50.376;8.742;2023-04-16T01:05:43;8.80;99.90
14349;DHT22;7258;50.376;8.742;2023-04-16T01:08:39;8.80;99.90
14349;DHT22;7258;50.376;8.742;2023-04-16T01:19:36;8.80;99.90
14349;DHT22;7258;50.376;8.742;2023-04-16T01:22:28;8.80;99.90
14349;DHT22;7258;50.376;8.742;2023-04-16T01:25:34;8.80;99.90
14349;DHT22;7258;50.376;8.742;2023-04-16T01:31:54;8.80;99.90
14349;DHT22;7258;50.376;8.742;2023-04-16T01:41:34;8.80;99.90
14349;DHT22;7258;50.376;8.742;2023-04-16T01:44:31;8.80;99.90
14349;DHT22;7258;50.376;8.742;2023-04-16T01:49:58;8.80;99.90
14349;DHT22;7258;50.376;8.742;2023-04-16T01:52:32;8.80;99.90
14349;DHT22;7258;50.376;8.742;2023-04-16T01:55:05;8.80;99.90
14349;DHT22;7258;50.376;8.742;2023-04-16T01:57:48;8.80;99.90
14349;DHT22;7258;50.376;8.742;2023-04-16T02:00:00;8.80;99.90
14349;DHT22;7258;50.376;8.742;2023-04-16T02:02:33;8.80;99.90
14349;DHT22;7258;50.376;8.742;2023-04-16T02:05:18;8.80;99.90
14349;DHT22;7258;50.376;8.742;2023-04-16T02:08:17;8.80;99.90
14349;DHT22;7258;50.376;8.742;2023-04-16T02:11:19;8.80;99.90
14349;DHT22;7258;50.376;8.742;2023-04-16T02:13:54;8.80;99.90
14349;DHT22;7258;50.376;8.742;2023-04-16T02:19:38;8.90;99.90
14349;DHT22;7258;50.376;8.742;2023-04-16T02:21:50;8.90;99.90
14349;DHT22;7258;50.376;8.742;2023-04-16T02:24:07;8.90;99.90
14349;DHT22;7258;50.376;8.742;2023-04-16T02:27:05;8.80;99.90
14349;DHT22;7258;50.376;8.742;2023-04-16T02:36:02;8.80;99.90
14349;DHT22;7258;50.376;8.742;2023-04-16T02:38:39;8.70;99.90
14349;DHT22;7258;50.376;8.742;2023-04-16T02:42:03;8.60;99.90
14349;DHT22;7258;50.376;8.742;2023-04-16T02:48:14;8.50;99.90
14349;DHT22;7258;50.376;8.742;2023-04-16T02:51:03;8.40;99.90
14349;DHT22;7258;50.376;8.742;2023-04-16T02:53:24;8.40;99.90
14349;DHT22;7258;50.376;8.742;2023-04-16T02:56:06;8.40;99.90
14349;DHT22;7258;50.376;8.742;2023-04-16T02:58:32;8.40;99.90
14349;DHT22;7258;50.376;8.742;2023-04-16T03:01:14;8.40;99.90
14349;DHT22;7258;50.376;8.742;2023-04-16T03:06:41;8.40;99.90
14349;DHT22;7258;50.376;8.742;2023-04-16T03:09:08;8.40;99.90
14349;DHT22;7258;50.376;8.742;2023-04-16T03:11:47;8.50;99.90
14349;DHT22;7258;50.376;8.742;2023-04-16T03:14:21;8.50;99.90
14349;DHT22;7258;50.376;8.742;2023-04-16T03:19:40;8.50;99.90
14349;DHT22;7258;50.376;8.742;2023-04-16T03:26:11;8.50;99.90
14349;DHT22;7258;50.376;8.742;2023-04-16T03:28:38;8.50;99.90
14349;DHT22;7258;50.376;8.742;2023-04-16T03:31:03;8.40;99.90
14349;DHT22;7258;50.376;8.742;2023-04-16T03:34:03;8.30;99.90
14349;DHT22;7258;50.376;8.742;2023-04-16T03:36:30;8.30;99.90
14349;DHT22;7258;50.376;8.742;2023-04-16T03:38:51;8.30;99.90
14349;DHT22;7258;50.376;8.742;2023-04-16T03:42:22;8.30;99.90
14349;DHT22;7258;50.376;8.742;2023-04-16T03:53:19;8.30;99.90
14349;DHT22;7258;50.376;8.742;2023-04-16T03:55:38;8.30;99.90
14349;DHT22;7258;50.376;8.742;2023-04-16T03:57:57;8.20;99.90
14349;DHT22;7258;50.376;8.742;2023-04-16T04:00:16;8.30;99.90
14349;DHT22;7258;50.376;8.742;2023-04-16T04:02:33;8.30;99.90
14349;DHT22;7258;50.376;8.742;2023-04-16T04:04:58;8.30;99.90
14349;DHT22;7258;50.376;8.742;2023-04-16T04:07:02;8.30;99.90
14349;DHT22;7258;50.376;8.742;2023-04-16T04:09:21;8.30;99.90
14349;DHT22;7258;50.376;8.742;2023-04-16T04:12:02;8.30;99.90
14349;DHT22;7258;50.376;8.742;2023-04-16T04:14:48;8.30;99.90
14349;DHT22;7258;50.376;8.742;2023-04-16T04:17:11;8.40;99.90
14349;DHT22;7258;50.376;8.742;2023-04-16T04:29:06;8.30;99.90
14349;DHT22;7258;50.376;8.742;2023-04-16T04:31:32;8.20;99.90
14349;DHT22;7258;50.376;8.742;2023-04-16T04:33:35;8.20;99.90
14349;DHT22;7258;50.376;8.742;2023-04-16T04:36:51;8.20;99.90
14349;DHT22;7258;50.376;8.742;2023-04-16T04:39:36;8.10;99.90
14349;DHT22;7258;50.376;8.742;2023-04-16T04:42:10;8.20;99.90
14349;DHT22;7258;50.376;8.742;2023-04-16T04:44:43;8.20;99.90
14349;DHT22;7258;50.376;8.742;2023-04-16T04:49:46;8.20;99.90
14349;DHT22;7258;50.376;8.742;2023-04-16T04:52:03;8.20;99.90
14349;DHT22;7258;50.376;8.742;2023-04-16T04:54:52;8.30;99.90
14349;DHT22;7258;50.376;8.742;2023-04-16T04:56:56;8.30;99.90
14349;DHT22;7258;50.376;8.742;2023-04-16T04:59:39;8.30;99.90
14349;DHT22;7258;50.376;8.742;2023-04-16T05:01:56;8.40;99.90
14349;DHT22;7258;50.376;8.742;2023-04-16T05:04:32;8.40;99.90
14349;DHT22;7258;50.376;8.742;2023-04-16T05:07:14;8.50;99.90
14349;DHT22;7258;50.376;8.742;2023-04-16T05:10:07;8.50;99.90
14349;DHT22;7258;50.376;8.742;2023-04-16T05:13:03;8.50;99.90
14349;DHT22;7258;50.376;8.742;2023-04-16T05:15:45;8.50;99.90
14349;DHT22;7258;50.376;8.742;2023-04-16T05:18:20;8.50;99.90
14349;DHT22;7258;50.376;8.742;2023-04-16T05:21:02;8.50;99.90
14349;DHT22;7258;50.376;8.742;2023-04-16T05:24:19;8.50;99.90
14349;DHT22;7258;50.376;8.742;2023-04-16T05:26:53;8.60;99.90
14349;DHT22;7258;50.376;8.742;2023-04-16T05:29:42;8.50;99.90
14349;DHT22;7258;50.376;8.742;2023-04-16T05:31:53;8.50;99.90
14349;DHT22;7258;50.376;8.742;2023-04-16T05:34:12;8.50;99.90
14349;DHT22;7258;50.376;8.742;2023-04-16T05:36:43;8.50;99.90
14349;DHT22;7258;50.376;8.742;2023-04-16T05:46:14;8.50;99.90
14349;DHT22;7258;50.376;8.742;2023-04-16T05:48:17;8.50;99.90
14349;DHT22;7258;50.376;8.742;2023-04-16T05:50:35;8.50;99.90
14349;DHT22;7258;50.376;8.742;2023-04-16T05:52:38;8.50;99.90
14349;DHT22;7258;50.376;8.742;2023-04-16T05:54:43;8.50;99.90
14349;DHT22;7258;50.376;8.742;2023-04-16T05:56:45;8.50;99.90
14349;DHT22;7258;50.376;8.742;2023-04-16T05:58:48;8.50;99.90
14349;DHT22;7258;50.376;8.742;2023-04-16T06:00:52;8.50;99.90
14349;DHT22;7258;50.376;8.742;2023-04-16T06:02:55;8.50;99.90
14349;DHT22;7258;50.376;8.742;2023-04-16T06:04:58;8.50;99.90
14349;DHT22;7258;50.376;8.742;2023-04-16T06:07:01;8.60;99.90
14349;DHT22;7258;50.376;8.742;2023-04-16T06:09:06;8.50;99.90
14349;DHT22;7258;50.376;8.742;2023-04-16T06:11:11;8.50;99.90
14349;DHT22;7258;50.376;8.742;2023-04-16T06:13:16;8.50;99.90
14349;DHT22;7258;50.376;8.742;2023-04-16T06:15:19;8.50;99.90
14349;DHT22;7258;50.376;8.742;2023-04-16T06:17:22;8.50;99.90
14349;DHT22;7258;50.376;8.742;2023-04-16T06:19:25;8.50;99.90
14349;DHT22;7258;50.376;8.742;2023-04-16T06:21:29;8.50;99.90
14349;DHT22;7258;50.376;8.742;2023-04-16T06:23:32;8.50;99.90
14349;DHT22;7258;50.376;8.742;2023-04-16T06:25:35;8.50;99.90
14349;DHT22;7258;50.376;8.742;2023-04-16T06:27:40;8.50;99.90
14349;DHT22;7258;50.376;8.742;2023-04-16T06:29:47;8.50;99.90
14349;DHT22;7258;50.376;8.742;2023-04-16T06:31:51;8.50;99.90
14349;DHT22;7258;50.376;8.742;2023-04-16T06:33:54;8.50;99.90
14349;DHT22;7258;50.376;8.742;2023-04-16T06:35:57;8.60;99.90
14349;DHT22;7258;50.376;8.742;2023-04-16T06:38:00;8.60;99.90
14349;DHT22;7258;50.376;8.742;2023-04-16T06:40:05;8.60;99.90
14349;DHT22;7258;50.376;8.742;2023-04-16T06:42:08;8.60;99.90
14349;DHT22;7258;50.376;8.742;2023-04-16T06:44:12;8.60;99.90
14349;DHT22;7258;50.376;8.742;2023-04-16T06:46:16;8.60;99.90
14349;DHT22;7258;50.376;8.742;2023-04-16T06:48:18;8.70;99.90
14349;DHT22;7258;50.376;8.742;2023-04-16T06:50:22;8.70;99.90
14349;DHT22;7258;50.376;8.742;2023-04-16T06:52:25;8.70;99.90
14349;DHT22;7258;50.376;8.742;2023-04-16T06:54:28;8.80;99.90
14349;DHT22;7258;50.376;8.742;2023-04-16T06:56:31;8.80;99.90
14349;DHT22;7258;50.376;8.742;2023-04-16T06:58:34;8.90;99.90
14349;DHT22;7258;50.376;8.742;2023-04-16T07:00:38;8.90;99.90
14349;DHT22;7258;50.376;8.742;2023-04-16T07:02:42;8.90;99.90
14349;DHT22;7258;50.376;8.742;2023-04-16T07:04:45;9.00;99.90
14349;DHT22;7258;50.376;8.742;2023-04-16T07:06:48;9.00;99.90
14349;DHT22;7258;50.376;8.742;2023-04-16T07:08:51;9.00;99.90
14349;DHT22;7258;50.376;8.742;2023-04-16T07:10:54;9.00;99.90
14349;DHT22;7258;50.376;8.742;2023-04-16T07:12:57;9.00;99.90
14349;DHT22;7258;50.376;8.742;2023-04-16T07:15:02;9.10;99.90
14349;DHT22;7258;50.376;8.742;2023-04-16T07:17:07;9.10;99.90
14349;DHT22;7258;50.376;8.742;2023-04-16T07:19:10;9.10;99.90
14349;DHT22;7258;50.376;8.742;2023-04-16T07:21:13;9.20;99.90
14349;DHT22;7258;50.376;8.742;2023-04-16T07:23:16;9.30;99.90
14349;DHT22;7258;50.376;8.742;2023-04-16T07:25:19;9.40;99.90
14349;DHT22;7258;50.376;8.742;2023-04-16T07:27:22;9.50;99.90
14349;DHT22;7258;50.376;8.742;2023-04-16T07:29:25;9.50;99.90
14349;DHT22;7258;50.376;8.742;2023-04-16T07:31:27;9.50;99.90
14349;DHT22;7258;50.376;8.742;2023-04-16T07:33:32;9.50;99.90
14349;DHT22;7258;50.376;8.742;2023-04-16T07:35:35;9.50;99.90
14349;DHT22;7258;50.376;8.742;2023-04-16T07:37:38;9.60;99.90
14349;DHT22;7258;50.376;8.742;2023-04-16T07:39:42;9.60;99.90
14349;DHT22;7258;50.376;8.742;2023-04-16T07:41:44;9.70;99.90
14349;DHT22;7258;50.376;8.742;2023-04-16T07:43:47;9.80;99.90
14349;DHT22;7258;50.376;8.742;2023-04-16T07:45:50;10.00;99.90
14349;DHT22;7258;50.376;8.742;2023-04-16T07:47:53;10.10;99.90
14349;DHT22;7258;50.376;8.742;2023-04-16T07:50:37;10.10;99.90
14349;DHT22;7258;50.376;8.742;2023-04-16T07:52:42;10.30;99.90
14349;DHT22;7258;50.376;8.742;2023-04-16T07:54:45;10.20;99.90
14349;DHT22;7258;50.376;8.742;2023-04-16T07:56:54;10.30;99.90
14349;DHT22;7258;50.376;8.742;2023-04-16T07:58:57;10.30;99.90
14349;DHT22;7258;50.376;8.742;2023-04-16T08:01:20;10.40;99.90
14349;DHT22;7258;50.376;8.742;2023-04-16T08:03:23;10.40;99.90
14349;DHT22;7258;50.376;8.742;2023-04-16T08:05:27;10.40;99.90
14349;DHT22;7258;50.376;8.742;2023-04-16T08:07:31;10.40;99.90
14349;DHT22;7258;50.376;8.742;2023-04-16T08:25:46;10.40;99.90
14349;DHT22;7258;50.376;8.742;2023-04-16T09:15:43;10.90;99.90
14349;DHT22;7258;50.376;8.742;2023-04-16T09:29:40;10.90;99.90
14349;DHT22;7258;50.376;8.742;2023-04-16T09:32:15;10.90;99.90
14349;DHT22;7258;50.376;8.742;2023-04-16T09:38:21;10.80;99.90
14349;DHT22;7258;50.376;8.742;2023-04-16T09:40:41;10.70;99.90
14349;DHT22;7258;50.376;8.742;2023-04-16T09:43:25;10.70;99.90
14349;DHT22;7258;50.376;8.742;2023-04-16T09:46:40;10.70;99.90
14349;DHT22;7258;50.376;8.742;2023-04-16T09:49:36;10.60;99.90
14349;DHT22;7258;50.376;8.742;2023-04-16T09:51:54;10.50;99.90
14349;DHT22;7258;50.376;8.742;2023-04-16T09:54:36;10.50;99.90
14349;DHT22;7258;50.376;8.742;2023-04-16T09:56:49;10.50;99.90
14349;DHT22;7258;50.376;8.742;2023-04-16T09:59:40;10.50;99.90
14349;DHT22;7258;50.376;8.742;2023-04-16T10:02:13;10.50;99.90
14349;DHT22;7258;50.376;8.742;2023-04-16T10:05:05;10.50;99.90
14349;DHT22;7258;50.376;8.742;2023-04-16T10:07:38;10.50;99.90
14349;DHT22;7258;50.376;8.742;2023-04-16T10:10:20;10.50;99.90
14349;DHT22;7258;50.376;8.742;2023-04-16T10:16:03;10.50;99.90
14349;DHT22;7258;50.376;8.742;2023-04-16T10:18:46;10.50;99.90
14349;DHT22;7258;50.376;8.742;2023-04-16T10:21:21;10.50;99.90
14349;DHT22;7258;50.376;8.742;2023-04-16T10:23:53;10.50;99.90
14349;DHT22;7258;50.376;8.742;2023-04-16T10:26:36;10.40;99.90
14349;DHT22;7258;50.376;8.742;2023-04-16T10:32:48;10.40;99.90
14349;DHT22;7258;50.376;8.742;2023-04-16T10:34:51;10.30;99.90
14349;DHT22;7258;50.376;8.742;2023-04-16T10:36:56;10.20;99.90
14349;DHT22;7258;50.376;8.742;2023-04-16T10:39:22;10.20;99.90
14349;DHT22;7258;50.376;8.742;2023-04-16T10:42:20;10.10;99.90
14349;DHT22;7258;50.376;8.742;2023-04-16T10:44:46;10.10;99.90
14349;DHT22;7258;50.376;8.742;2023-04-16T10:46:58;10.00;99.90
14349;DHT22;7258;50.376;8.742;2023-04-16T10:49:57;10.00;99.90
14349;DHT22;7258;50.376;8.742;2023-04-16T10:52:17;10.00;99.90
14349;DHT22;7258;50.376;8.742;2023-04-16T10:54:58;10.00;99.90
14349;DHT22;7258;50.376;8.742;2023-04-16T11:04:29;9.90;99.90
14349;DHT22;7258;50.376;8.742;2023-04-16T11:10:18;9.90;99.90
14349;DHT22;7258;50.376;8.742;2023-04-16T11:15:35;9.90;99.90
14349;DHT22;7258;50.376;8.742;2023-04-16T11:18:18;9.90;99.90
14349;DHT22;7258;50.376;8.742;2023-04-16T11:24:05;9.80;99.90
14349;DHT22;7258;50.376;8.742;2023-04-16T11:26:51;9.80;99.90
14349;DHT22;7258;50.376;8.742;2023-04-16T11:29:17;9.80;99.90
14349;DHT22;7258;50.376;8.742;2023-04-16T11:35:15;9.80;99.90
14349;DHT22;7258;50.376;8.742;2023-04-16T11:37:46;9.80;99.90
14349;DHT22;7258;50.376;8.742;2023-04-16T11:40:20;9.80;99.90
14349;DHT22;7258;50.376;8.742;2023-04-16T11:42:24;9.80;99.90
14349;DHT22;7258;50.376;8.742;2023-04-16T11:45:53;9.90;99.90
14349;DHT22;7258;50.376;8.742;2023-04-16T11:56:24;10.20;99.90
14349;DHT22;7258;50.376;8.742;2023-04-16T11:59:17;10.40;99.90
14349;DHT22;7258;50.376;8.742;2023-04-16T12:01:36;10.50;99.90
14349;DHT22;7258;50.376;8.742;2023-04-16T12:03:45;10.60;99.90
14349;DHT22;7258;50.376;8.742;2023-04-16T12:05:50;10.70;99.90
14349;DHT22;7258;50.376;8.742;2023-04-16T12:07:54;10.80;99.90
14349;DHT22;7258;50.376;8.742;2023-04-16T12:10:07;10.90;99.90
14349;DHT22;7258;50.376;8.742;2023-04-16T12:12:29;11.10;99.90
14349;DHT22;7258;50.376;8.742;2023-04-16T12:14:49;11.20;99.90
14349;DHT22;7258;50.376;8.742;2023-04-16T12:16:52;11.40;99.90
14349;DHT22;7258;50.376;8.742;2023-04-16T12:18:59;11.60;99.90
14349;DHT22;7258;50.376;8.742;2023-04-16T12:21:04;11.80;99.90
14349;DHT22;7258;50.376;8.742;2023-04-16T12:23:26;12.10;99.90
14349;DHT22;7258;50.376;8.742;2023-04-16T12:25:30;12.40;99.90
14349;DHT22;7258;50.376;8.742;2023-04-16T12:27:47;12.70;99.90
14349;DHT22;7258;50.376;8.742;2023-04-16T12:30:06;12.90;99.90
14349;DHT22;7258;50.376;8.742;2023-04-16T12:33:11;13.10;99.90
14349;DHT22;7258;50.376;8.742;2023-04-16T12:35:28;13.40;99.90
14349;DHT22;7258;50.376;8.742;2023-04-16T12:37:35;13.50;99.90
14349;DHT22;7258;50.376;8.742;2023-04-16T12:39:46;13.60;99.90
14349;DHT22;7258;50.376;8.742;2023-04-16T12:42:16;13.70;99.90
14349;DHT22;7258;50.376;8.742;2023-04-16T12:44:21;13.80;99.90
14349;DHT22;7258;50.376;8.742;2023-04-16T12:46:41;13.90;99.90
14349;DHT22;7258;50.376;8.742;2023-04-16T13:06:26;14.70;99.90
14349;DHT22;7258;50.376;8.742;2023-04-16T13:09:26;14.80;99.90
14349;DHT22;7258;50.376;8.742;2023-04-16T13:12:25;14.50;99.90
14349;DHT22;7258;50.376;8.742;2023-04-16T13:49:07;13.70;99.90
14349;DHT22;7258;50.376;8.742;2023-04-16T13:51:19;13.90;99.90
14349;DHT22;7258;50.376;8.742;2023-04-16T13:53:57;14.10;99.90
14349;DHT22;7258;50.376;8.742;2023-04-16T13:56:29;14.10;99.90
14349;DHT22;7258;50.376;8.742;2023-04-16T13:59:28;13.80;99.90
14349;DHT22;7258;50.376;8.742;2023-04-16T14:02:09;13.60;99.90
14349;DHT22;7258;50.376;8.742;2023-04-16T14:07:55;13.00;99.90
14349;DHT22;7258;50.376;8.742;2023-04-16T14:10:15;12.90;99.90
14349;DHT22;7258;50.376;8.742;2023-04-16T14:12:50;12.80;99.90
14349;DHT22;7258;50.376;8.742;2023-04-16T14:15:28;12.60;99.90
14349;DHT22;7258;50.376;8.742;2023-04-16T14:17:48;12.60;99.90
14349;DHT22;7258;50.376;8.742;2023-04-16T14:20:12;12.60;99.90
14349;DHT22;7258;50.376;8.742;2023-04-16T14:22:45;12.60;99.90
14349;DHT22;7258;50.376;8.742;2023-04-16T14:25:01;12.70;99.90
14349;DHT22;7258;50.376;8.742;2023-04-16T14:27:08;12.70;99.90
14349;DHT22;7258;50.376;8.742;2023-04-16T14:29:54;12.80;99.90
14349;DHT22;7258;50.376;8.742;2023-04-16T14:32:09;12.70;99.90
14349;DHT22;7258;50.376;8.742;2023-04-16T14:34:26;12.70;99.90
14349;DHT22;7258;50.376;8.742;2023-04-16T14:36:46;12.70;99.90
14349;DHT22;7258;50.376;8.742;2023-04-16T14:38:59;12.60;99.90
14349;DHT22;7258;50.376;8.742;2023-04-16T14:41:54;12.60;99.90
14349;DHT22;7258;50.376;8.742;2023-04-16T14:44:39;12.50;99.90
14349;DHT22;7258;50.376;8.742;2023-04-16T14:47:06;12.50;99.90
14349;DHT22;7258;50.376;8.742;2023-04-16T14:49:22;12.50;99.90
14349;DHT22;7258;50.376;8.742;2023-04-16T14:51:39;12.50;99.90
14349;DHT22;7258;50.376;8.742;2023-04-16T14:53:50;12.50;99.90
14349;DHT22;7258;50.376;8.742;2023-04-16T14:56:11;12.50;99.90
14349;DHT22;7258;50.376;8.742;2023-04-16T14:58:28;12.50;99.90
14349;DHT22;7258;50.376;8.742;2023-04-16T15:08:24;12.60;99.90
14349;DHT22;7258;50.376;8.742;2023-04-16T15:14:14;12.60;99.90
14349;DHT22;7258;50.376;8.742;2023-04-16T15:17:08;12.60;99.90
14349;DHT22;7258;50.376;8.742;2023-04-16T15:19:45;12.60;99.90
14349;DHT22;7258;50.376;8.742;2023-04-16T15:22:12;12.50;99.90
14349;DHT22;7258;50.376;8.742;2023-04-16T15:24:56;12.40;99.90
14349;DHT22;7258;50.376;8.742;2023-04-16T15:27:30;12.40;99.90
14349;DHT22;7258;50.376;8.742;2023-04-16T15:32:17;12.40;99.90
14349;DHT22;7258;50.376;8.742;2023-04-16T15:35:06;12.30;99.90
14349;DHT22;7258;50.376;8.742;2023-04-16T15:37:48;12.30;99.90
14349;DHT22;7258;50.376;8.742;2023-04-16T15:40:47;12.30;99.90
14349;DHT22;7258;50.376;8.742;2023-04-16T15:43:05;12.30;99.90
14349;DHT22;7258;50.376;8.742;2023-04-16T15:45:48;12.30;99.90
14349;DHT22;7258;50.376;8.742;2023-04-16T15:48:12;12.40;99.90
14349;DHT22;7258;50.376;8.742;2023-04-16T15:50:27;12.40;99.90
14349;DHT22;7258;50.376;8.742;2023-04-16T15:52:52;12.50;99.90
14349;DHT22;7258;50.376;8.742;2023-04-16T15:57:36;12.60;99.90
14349;DHT22;7258;50.376;8.742;2023-04-16T16:01:22;12.60;99.90
14349;DHT22;7258;50.376;8.742;2023-04-16T16:03:19;12.70;99.90
14349;DHT22;7258;50.376;8.742;2023-04-16T16:07:13;12.80;99.90
14349;DHT22;7258;50.376;8.742;2023-04-16T16:09:59;12.80;99.90
14349;DHT22;7258;50.376;8.742;2023-04-16T16:12:49;12.80;99.90
14349;DHT22;7258;50.376;8.742;2023-04-16T16:18:53;12.70;99.90
14349;DHT22;7258;50.376;8.742;2023-04-16T16:21:03;12.60;99.90
14349;DHT22;7258;50.376;8.742;2023-04-16T16:23:36;12.60;99.90
14349;DHT22;7258;50.376;8.742;2023-04-16T16:25:50;12.50;99.90
14349;DHT22;7258;50.376;8.742;2023-04-16T16:28:21;12.40;99.90
14349;DHT22;7258;50.376;8.742;2023-04-16T16:30:51;12.50;99.90
14349;DHT22;7258;50.376;8.742;2023-04-16T16:33:21;12.40;99.90
14349;DHT22;7258;50.376;8.742;2023-04-16T16:35:53;12.40;99.90
14349;DHT22;7258;50.376;8.742;2023-04-16T16:38:05;12.40;99.90
14349;DHT22;7258;50.376;8.742;2023-04-16T16:40:26;12.30;99.90
14349;DHT22;7258;50.376;8.742;2023-04-16T16:42:34;12.30;99.90
14349;DHT22;7258;50.376;8.742;2023-04-16T16:45:00;12.30;99.90
14349;DHT22;7258;50.376;8.742;2023-04-16T16:47:20;12.30;99.90
14349;DHT22;7258;50.376;8.742;2023-04-16T16:49:29;12.30;99.90
14349;DHT22;7258;50.376;8.742;2023-04-16T16:52:03;12.30;99.90
14349;DHT22;7258;50.376;8.742;2023-04-16T16:54:22;12.30;99.90
14349;DHT22;7258;50.376;8.742;2023-04-16T17:00:38;12.30;99.90
14349;DHT22;7258;50.376;8.742;2023-04-16T17:02:49;12.30;99.90
14349;DHT22;7258;50.376;8.742;2023-04-16T17:05:48;12.20;99.90
14349;DHT22;7258;50.376;8.742;2023-04-16T17:08:06;12.30;99.90
14349;DHT22;7258;50.376;8.742;2023-04-16T17:10:16;12.30;99.90
14349;DHT22;7258;50.376;8.742;2023-04-16T17:12:48;12.30;99.90
14349;DHT22;7258;50.376;8.742;2023-04-16T17:15:25;12.30;99.90
14349;DHT22;7258;50.376;8.742;2023-04-16T17:17:42;12.30;99.90
14349;DHT22;7258;50.376;8.742;2023-04-16T17:20:02;12.30;99.90
14349;DHT22;7258;50.376;8.742;2023-04-16T17:22:50;12.30;99.90
14349;DHT22;7258;50.376;8.742;2023-04-16T17:25:10;12.30;99.90
14349;DHT22;7258;50.376;8.742;2023-04-16T17:27:27;12.20;99.90
14349;DHT22;7258;50.376;8.742;2023-04-16T17:30:13;12.20;99.90
14349;DHT22;7258;50.376;8.742;2023-04-16T17:32:31;12.10;99.90
14349;DHT22;7258;50.376;8.742;2023-04-16T17:34:47;12.10;99.90
14349;DHT22;7258;50.376;8.742;2023-04-16T17:36:51;12.00;99.90
14349;DHT22;7258;50.376;8.742;2023-04-16T17:39:06;11.90;99.90
14349;DHT22;7258;50.376;8.742;2023-04-16T17:42:08;11.90;99.90
14349;DHT22;7258;50.376;8.742;2023-04-16T17:44:48;11.80;99.90
14349;DHT22;7258;50.376;8.742;2023-04-16T17:47:16;11.70;99.90
14349;DHT22;7258;50.376;8.742;2023-04-16T17:50:08;11.60;99.90
14349;DHT22;7258;50.376;8.742;2023-04-16T17:52:23;11.50;99.90
14349;DHT22;7258;50.376;8.742;2023-04-16T17:54:26;11.50;99.90
14349;DHT22;7258;50.376;8.742;2023-04-16T17:57:00;11.40;99.90
14349;DHT22;7258;50.376;8.742;2023-04-16T18:07:34;11.20;99.90
14349;DHT22;7258;50.376;8.742;2023-04-16T18:13:10;11.10;99.90
14349;DHT22;7258;50.376;8.742;2023-04-16T18:16:25;11.00;99.90
14349;DHT22;7258;50.376;8.742;2023-04-16T18:18:58;11.00;99.90
14349;DHT22;7258;50.376;8.742;2023-04-16T18:26:17;10.90;99.90
14349;DHT22;7258;50.376;8.742;2023-04-16T19:03:43;10.50;99.90
14349;DHT22;7258;50.376;8.742;2023-04-16T19:07:05;10.40;99.90
14349;DHT22;7258;50.376;8.742;2023-04-16T19:12:40;10.40;99.90
14349;DHT22;7258;50.376;8.742;2023-04-16T19:34:38;10.00;99.90
14349;DHT22;7258;50.376;8.742;2023-04-16T19:36:57;10.00;99.90
14349;DHT22;7258;50.376;8.742;2023-04-16T19:47:07;9.90;99.90
14349;DHT22;7258;50.376;8.742;2023-04-16T19:53:36;9.80;99.90
14349;DHT22;7258;50.376;8.742;2023-04-16T19:55:55;9.80;99.90
14349;DHT22;7258;50.376;8.742;2023-04-16T20:16:42;9.60;99.90
14349;DHT22;7258;50.376;8.742;2023-04-16T20:19:18;9.60;99.90
14349;DHT22;7258;50.376;8.742;2023-04-16T20:22:14;9.60;99.90
14349;DHT22;7258;50.376;8.742;2023-04-16T20:24:52;9.60;99.90
14349;DHT22;7258;50.376;8.742;2023-04-16T20:28:07;9.50;99.90
14349;DHT22;7258;50.376;8.742;2023-04-16T20:31:04;9.50;99.90
14349;DHT22;7258;50.376;8.742;2023-04-16T20:52:51;9.30;99.90
14349;DHT22;7258;50.376;8.742;2023-04-16T20:55:41;9.30;99.90
14349;DHT22;7258;50.376;8.742;2023-04-16T20:58:33;9.30;99.90
14349;DHT22;7258;50.376;8.742;2023-04-16T21:06:30;9.30;99.90
14349;DHT22;7258;50.376;8.742;2023-04-16T21:09:11;9.30;99.90
14349;DHT22;7258;50.376;8.742;2023-04-16T21:13:56;9.30;99.90
14349;DHT22;7258;50.376;8.742;2023-04-16T21:16:08;9.30;99.90
14349;DHT22;7258;50.376;8.742;2023-04-16T21:18:58;9.20;99.90
14349;DHT22;7258;50.376;8.742;2023-04-16T21:33:27;9.10;99.90
14349;DHT22;7258;50.376;8.742;2023-04-16T22:21:00;8.70;99.90
14349;DHT22;7258;50.376;8.742;2023-04-16T22:27:09;8.70;99.90
14349;DHT22;7258;50.376;8.742;2023-04-16T22:40:51;8.70;99.90
14349;DHT22;7258;50.376;8.742;2023-04-16T22:43:25;8.70;99.90
14349;DHT22;7258;50.376;8.742;2023-04-16T22:46:07;8.70;99.90
14349;DHT22;7258;50.376;8.742;2023-04-16T22:51:55;8.70;99.90
14349;DHT22;7258;50.376;8.742;2023-04-16T22:54:13;8.70;99.90
14349;DHT22;7258;50.376;8.742;2023-04-16T23:00:05;8.70;99.90
14349;DHT22;7258;50.376;8.742;2023-04-16T23:02:29;8.70;99.90
14349;DHT22;7258;50.376;8.742;2023-04-16T23:04:50;8.70;99.90
14349;DHT22;7258;50.376;8.742;2023-04-16T23:07:24;8.60;99.90
14349;DHT22;7258;50.376;8.742;2023-04-16T23:10:17;8.60;99.90
14349;DHT22;7258;50.376;8.742;2023-04-16T23:12:39;8.60;99.90
14349;DHT22;7258;50.376;8.742;2023-04-16T23:16:04;8.60;99.90
14349;DHT22;7258;50.376;8.742;2023-04-16T23:18:32;8.60;99.90
14349;DHT22;7258;50.376;8.742;2023-04-16T23:21:06;8.60;99.90
14349;DHT22;7258;50.376;8.742;2023-04-16T23:24:12;8.60;99.90
14349;DHT22;7258;50.376;8.742;2023-04-16T23:27:02;8.60;99.90
14349;DHT22;7258;50.376;8.742;2023-04-16T23:29:44;8.50;99.90
14349;DHT22;7258;50.376;8.742;2023-04-16T23:41:35;8.50;99.90
14349;DHT22;7258;50.376;8.742;2023-04-16T23:44:17;8.50;99.90
14349;DHT22;7258;50.376;8.742;2023-04-16T23:46:43;8.50;99.90
14349;DHT22;7258;50.376;8.742;2023-04-16T23:49:42;8.50;99.90
14349;DHT22;7258;50.376;8.742;2023-04-16T23:51:50;8.40;99.90
14349;DHT22;7258;50.376;8.742;2023-04-16T23:54:03;8.40;99.90
14349;DHT22;7258;50.376;8.742;2023-04-16T23:57:02;8.40;99.90
14349;DHT22;7258;50.376;8.742;2023-04-16T23:59:36;8.40;99.90
